createdAt,value
2022-10-28T00:03:48.531Z,100
2022-10-28T00:08:50.328Z,100
2022-10-28T00:13:52.005Z,100
2022-10-28T00:18:53.840Z,100
2022-10-28T00:23:55.736Z,100
2022-10-28T00:28:57.522Z,100
2022-10-28T00:33:59.725Z,100
2022-10-28T00:39:01.505Z,100
2022-10-28T00:44:03.470Z,100
2022-10-28T00:49:05.498Z,100
2022-10-28T00:54:07.393Z,100
2022-10-28T00:59:09.371Z,100
2022-10-28T01:04:11.347Z,100
2022-10-28T01:09:13.227Z,100
2022-10-28T01:14:14.809Z,100
2022-10-28T01:19:16.429Z,100
2022-10-28T01:24:17.861Z,100
2022-10-28T01:29:19.351Z,100
2022-10-28T01:34:21.302Z,100
2022-10-28T01:39:22.780Z,100
2022-10-28T01:44:24.218Z,100
2022-10-28T01:49:25.811Z,100
2022-10-28T01:54:27.366Z,100
2022-10-28T01:59:28.873Z,100
2022-10-28T02:04:30.569Z,100
2022-10-28T02:09:32.110Z,100
2022-10-28T02:14:33.839Z,100
2022-10-28T02:19:35.695Z,100
2022-10-28T02:24:37.451Z,100
2022-10-28T02:29:39.125Z,100
2022-10-28T02:34:40.815Z,100
2022-10-28T02:39:42.293Z,100
2022-10-28T02:44:44.046Z,100
2022-10-28T02:49:45.602Z,100
2022-10-28T02:54:47.075Z,100
2022-10-28T02:59:48.538Z,100
2022-10-28T03:04:50.379Z,100
2022-10-28T03:09:51.907Z,100
2022-10-28T03:14:53.361Z,100
2022-10-28T03:19:55.079Z,100
2022-10-28T03:24:56.528Z,100
2022-10-28T03:29:57.996Z,100
2022-10-28T03:34:59.826Z,100
2022-10-28T03:40:01.347Z,100
2022-10-28T03:45:02.781Z,100
2022-10-28T03:50:04.428Z,100
2022-10-28T03:55:05.985Z,100
2022-10-28T04:00:07.790Z,100
2022-10-28T04:05:09.757Z,100
2022-10-28T04:10:11.720Z,100
2022-10-28T04:15:13.462Z,98.87457
2022-10-28T04:20:15.292Z,100
2022-10-28T04:25:16.811Z,100
2022-10-28T04:30:18.367Z,100
2022-10-28T04:35:20.175Z,96.16149
2022-10-28T04:40:21.744Z,94.81248
2022-10-28T04:45:23.555Z,92.02302
2022-10-28T04:50:25.261Z,92.92479
2022-10-28T04:55:26.926Z,91.09683
2022-10-28T05:00:28.734Z,87.99303
2022-10-28T05:05:30.519Z,88.01778
2022-10-28T05:10:32.125Z,88.86238
2022-10-28T05:15:33.772Z,83.61671
2022-10-28T05:20:35.224Z,86.68929
2022-10-28T05:25:36.982Z,82.45504
2022-10-28T05:30:38.747Z,81.46623
2022-10-28T05:35:40.693Z,82.42157
2022-10-28T05:40:42.343Z,82.45514
2022-10-28T05:45:44.072Z,82.6815
2022-10-28T05:50:45.940Z,79.59115
2022-10-28T05:55:48.113Z,78.07132
2022-10-28T06:00:49.831Z,77.64401
2022-10-28T06:05:51.847Z,70.23287
2022-10-28T06:10:51.942Z,73.2579
2022-10-28T06:15:53.798Z,69.27495
2022-10-28T06:20:55.943Z,73.93902
2022-10-28T06:30:59.415Z,67.62439
2022-10-28T06:36:01.479Z,70.82782
2022-10-28T06:41:03.526Z,72.19076
2022-10-28T06:46:05.291Z,66.7976
2022-10-28T06:51:08.940Z,70.98514
2022-10-28T06:56:10.855Z,62.86504
2022-10-28T07:01:12.714Z,62.52721
2022-10-28T07:11:16.556Z,61.62384
2022-10-28T07:16:18.058Z,62.1174
2022-10-28T07:21:19.839Z,62.90577
2022-10-28T07:26:21.421Z,61.291
2022-10-28T07:31:23.015Z,57.01196
2022-10-28T07:36:25.097Z,58.97271
2022-10-28T07:41:26.585Z,56.06588
2022-10-28T07:46:28.078Z,54.30528
2022-10-28T07:51:29.802Z,53.68202
2022-10-28T07:56:31.560Z,54.06303
2022-10-28T08:01:33.537Z,53.50165
2022-10-28T08:06:35.675Z,49.28626
2022-10-28T08:11:37.455Z,46.3335
2022-10-28T08:16:39.313Z,46.07326
2022-10-28T08:21:41.296Z,46.23816
2022-10-28T08:26:43.255Z,44.72312
2022-10-28T08:31:45.019Z,45.62508
2022-10-28T08:36:47.195Z,44.53985
2022-10-28T08:41:49.012Z,43.88026
2022-10-28T08:46:50.930Z,42.28398
2022-10-28T08:51:52.815Z,46.93312
2022-10-28T08:56:54.687Z,40.89064
2022-10-28T09:01:56.432Z,41.7127
2022-10-28T09:06:59.563Z,39.15871
2022-10-28T09:12:01.326Z,39.52867
2022-10-28T09:17:03.149Z,39.13586
2022-10-28T09:22:05.217Z,41.1848
2022-10-28T09:27:07.108Z,38.58686
2022-10-28T09:32:08.851Z,40.8922
2022-10-28T09:37:10.820Z,39.39506
2022-10-28T09:42:12.600Z,37.91128
2022-10-28T09:47:14.398Z,35.37819
2022-10-28T09:52:16.390Z,34.46813
2022-10-28T09:57:18.041Z,36.94069
2022-10-28T10:02:19.693Z,34.55856
2022-10-28T10:07:21.375Z,38.7484
2022-10-28T10:12:22.771Z,37.41554
2022-10-28T10:17:24.551Z,33.23842
2022-10-28T10:22:26.100Z,33.18578
2022-10-28T10:27:27.548Z,32.3551
2022-10-28T10:32:29.311Z,33.51612
2022-10-28T10:37:31.377Z,33.23525
2022-10-28T10:42:33.688Z,31.47324
2022-10-28T10:47:36.501Z,30.87457
2022-10-28T10:52:38.513Z,32.78756
2022-10-28T10:57:40.210Z,33.22836
2022-10-28T11:02:42.132Z,32.70807
2022-10-28T11:07:45.309Z,31.79634
2022-10-28T11:12:49.249Z,35.21508
2022-10-28T11:17:51.584Z,33.13914
2022-10-28T11:22:53.672Z,36.55784
2022-10-28T11:27:57.606Z,34.35258
2022-10-28T11:33:08.097Z,35.85392
2022-10-28T11:38:26.960Z,34.63593
2022-10-28T11:43:28.737Z,34.36155
2022-10-28T11:48:30.208Z,33.31783
2022-10-28T11:53:32.105Z,33.57843
2022-10-28T11:58:33.758Z,34.29413
2022-10-28T12:03:35.579Z,33.25328
2022-10-28T12:08:37.695Z,32.19313
2022-10-28T12:13:39.597Z,32.58884
2022-10-28T12:18:41.504Z,31.9791
2022-10-28T12:23:43.250Z,33.8988
2022-10-28T12:28:45.164Z,34.0228
2022-10-28T12:33:46.934Z,32.41478
2022-10-28T12:38:49.159Z,31.67491
2022-10-28T12:43:51.115Z,31.88424
2022-10-28T12:48:52.875Z,31.22871
2022-10-28T12:53:54.680Z,30.04619
2022-10-28T12:58:56.602Z,29.47382
2022-10-28T13:03:58.433Z,30.82294
2022-10-28T13:09:00.537Z,31.30432
2022-10-28T13:14:02.612Z,30.88923
2022-10-28T13:19:04.695Z,31.8465
2022-10-28T13:24:06.468Z,31.71548
2022-10-28T13:29:08.313Z,28.60239
2022-10-28T13:34:10.145Z,29.8107
2022-10-28T13:39:12.321Z,31.21432
2022-10-28T13:44:14.228Z,31.99977
2022-10-28T13:49:16.023Z,32.91221
2022-10-28T13:54:17.919Z,32.24234
2022-10-28T13:59:19.511Z,35.57682
2022-10-28T14:04:21.020Z,36.63732
2022-10-28T14:09:22.811Z,36.97075
2022-10-28T14:14:24.359Z,35.44526
2022-10-28T14:19:25.797Z,34.7333
2022-10-28T14:24:27.336Z,34.43779
2022-10-28T14:29:28.849Z,33.34868
2022-10-28T14:34:30.326Z,34.29014
2022-10-28T14:39:32.080Z,30.83426
2022-10-28T14:44:33.610Z,30.86409
2022-10-28T14:49:35.256Z,32.61789
2022-10-28T14:54:38.222Z,31.53992
2022-10-28T14:59:41.727Z,32.78652
2022-10-28T15:04:43.562Z,32.29077
2022-10-28T15:09:45.357Z,34.58525
2022-10-28T15:14:47.305Z,35.45133
2022-10-28T15:19:48.959Z,36.5056
2022-10-28T15:24:50.811Z,40.79147
2022-10-28T15:29:52.453Z,53.96284
2022-10-28T15:34:54.219Z,56.08697
2022-10-28T15:40:00.273Z,57.34961
2022-10-28T15:45:07.064Z,57.82292
2022-10-28T15:50:09.020Z,58.78164
2022-10-28T15:55:10.852Z,61.33841
2022-10-28T16:00:12.709Z,63.13901
2022-10-28T16:05:14.340Z,64.04058
2022-10-28T16:10:16.101Z,64.31585
2022-10-28T16:15:17.575Z,64.3718
2022-10-28T16:20:19.266Z,66.45973
2022-10-28T16:25:20.835Z,66.79765
2022-10-28T16:35:23.814Z,67.9331
2022-10-28T16:40:50.199Z,70.40442
2022-10-28T16:45:53.812Z,70.11383
2022-10-28T16:50:55.736Z,71.19614
2022-10-28T16:55:57.815Z,74.46639
2022-10-28T17:00:59.832Z,75.50106
2022-10-28T17:06:01.335Z,77.95238
2022-10-28T17:11:03.217Z,78.96354
2022-10-28T17:16:04.866Z,78.82556
2022-10-28T17:21:06.706Z,81.5291
2022-10-28T17:26:08.739Z,77.10557
2022-10-28T17:31:10.703Z,75.13841
2022-10-28T17:36:12.474Z,77.42433
2022-10-28T17:41:14.669Z,78.57559
2022-10-28T17:46:16.556Z,79.32699
2022-10-28T17:51:18.640Z,79.48525
2022-10-28T17:56:20.430Z,79.91307
2022-10-28T18:01:22.015Z,80.83954
2022-10-28T18:06:23.893Z,80.35148
2022-10-28T18:11:25.634Z,78.25216
2022-10-28T18:16:27.105Z,81.27997
2022-10-28T18:21:28.603Z,81.80634
2022-10-28T18:26:30.589Z,82.431
2022-10-28T18:31:32.345Z,81.86755
2022-10-28T18:36:34.494Z,83.53987
2022-10-28T18:41:36.688Z,82.55673
2022-10-28T18:46:38.412Z,81.8373
2022-10-28T18:51:40.250Z,80.23007
2022-10-28T18:56:46.210Z,79.49192
2022-10-28T19:01:50.104Z,79.92103
2022-10-28T19:06:51.939Z,78.328
2022-10-28T19:11:53.914Z,78.1815
2022-10-28T19:16:55.894Z,78.13936
2022-10-28T19:21:57.642Z,78.12209
2022-10-28T19:26:59.448Z,78.27003
2022-10-28T19:32:01.348Z,78.07128
2022-10-28T19:37:03.233Z,78.33506
2022-10-28T19:42:05.302Z,79.00138
2022-10-28T19:47:07.181Z,78.60825
2022-10-28T19:52:08.941Z,77.67417
2022-10-28T19:57:11.052Z,76.07943
2022-10-28T20:02:12.981Z,79.21024
2022-10-28T20:07:14.974Z,79.30763
2022-10-28T20:12:17.219Z,82.86599
2022-10-28T20:17:19.053Z,81.04348
2022-10-28T20:22:20.646Z,80.43785
2022-10-28T20:27:22.302Z,81.55764
2022-10-28T20:32:23.741Z,81.14985
2022-10-28T20:37:25.129Z,84.36951
2022-10-28T20:42:26.958Z,84.37944
2022-10-28T20:47:28.526Z,82.73316
2022-10-28T20:52:30.376Z,83.16383
2022-10-28T20:57:31.770Z,86.40562
2022-10-28T21:02:33.457Z,85.59703
2022-10-28T21:07:35.150Z,87.17524
2022-10-28T21:12:37.068Z,87.20534
2022-10-28T21:17:38.616Z,88.94707
2022-10-28T21:22:40.285Z,90.71222
2022-10-28T21:27:41.954Z,91.76846
2022-10-28T21:32:43.424Z,89.36517
2022-10-28T21:37:45.096Z,90.05929
2022-10-28T21:42:47.149Z,89.70749
2022-10-28T21:47:48.713Z,89.69871
2022-10-28T21:52:50.228Z,91.09831
2022-10-28T21:57:52.003Z,89.66946
2022-10-28T22:02:53.771Z,89.88046
2022-10-28T22:07:55.492Z,91.75619
2022-10-28T22:12:57.567Z,93.69928
2022-10-28T22:17:59.173Z,94.57752
2022-10-28T22:23:00.698Z,97.22286
2022-10-28T22:28:02.415Z,94.78118
2022-10-28T22:33:03.875Z,94.0853
2022-10-28T22:38:05.316Z,99.0533
2022-10-28T22:43:07.266Z,98.2951
2022-10-28T22:48:08.720Z,96.92532
2022-10-28T22:53:10.754Z,99.45723
2022-10-28T22:58:12.493Z,96.49379
2022-10-28T23:03:14.489Z,94.79009
2022-10-28T23:08:16.070Z,92.17579
2022-10-28T23:13:17.920Z,93.96784
2022-10-28T23:18:19.373Z,93.71907
2022-10-28T23:23:21.252Z,92.7453
2022-10-28T23:28:23.175Z,88.83545
2022-10-28T23:33:24.656Z,92.55082
2022-10-28T23:38:26.120Z,91.13771
2022-10-28T23:43:27.803Z,91.0712
2022-10-28T23:48:29.277Z,88.87072
2022-10-28T23:53:31.456Z,89.03285
2022-10-28T23:58:33.171Z,90.11514
